Time;durP1;ratioP1;P1;durP2;ratioP2;P2;SDS_P1;SDS_P2;PMS_P1;PMS_P2;Temp;Humidity;BMP_temperature;BMP_pressure;BME280_temperature;BME280_humidity;BME280_pressure;Samples;Min_cycle;Max_cycle;Signal;HPM_P1;HPM_P2
2022/12/18 00:02:16;;;;;;;44.83;18.15;;;0.00;99.90;;;;;;5016515;28;20087;-78
2022/12/18 00:04:42;;;;;;;49.10;19.63;;;-0.10;99.90;;;;;;5036425;28;20043;-78
2022/12/18 00:07:07;;;;;;;52.78;19.17;;;-0.10;99.90;;;;;;5039412;28;20091;-79
2022/12/18 00:09:33;;;;;;;48.47;17.75;;;-0.10;99.90;;;;;;5019653;28;20025;-76
2022/12/18 00:11:59;;;;;;;52.53;19.23;;;-0.10;99.90;;;;;;5034261;28;20218;-77
2022/12/18 00:14:24;;;;;;;48.10;17.05;;;0.00;99.90;;;;;;5033963;28;20021;-77
2022/12/18 00:16:50;;;;;;;48.20;18.08;;;-0.10;99.90;;;;;;5026367;28;20543;-77
2022/12/18 00:19:15;;;;;;;45.53;17.10;;;0.00;99.90;;;;;;5038790;28;20025;-77
2022/12/18 00:21:43;;;;;;;40.13;17.40;;;-0.10;99.90;;;;;;5020946;28;20109;-79
2022/12/18 00:24:09;;;;;;;47.22;18.02;;;-0.10;99.90;;;;;;5015755;28;20118;-79
2022/12/18 00:26:36;;;;;;;46.20;17.90;;;-0.10;99.90;;;;;;5030094;28;20521;-79
2022/12/18 00:29:06;;;;;;;44.47;17.00;;;-0.10;99.90;;;;;;5033192;28;20470;-79
2022/12/18 00:31:32;;;;;;;45.95;17.42;;;-0.10;99.90;;;;;;5020008;28;20032;-76
2022/12/18 00:33:59;;;;;;;42.20;17.75;;;-0.10;99.90;;;;;;5014785;28;20033;-79
2022/12/18 00:36:28;;;;;;;47.75;18.77;;;-0.10;99.90;;;;;;5036675;28;20155;-78
2022/12/18 00:38:55;;;;;;;44.08;17.67;;;-0.10;99.90;;;;;;5032765;28;20417;-78
2022/12/18 00:44:07;;;;;;;41.60;16.58;;;-0.10;99.90;;;;;;5037957;28;20035;-78
2022/12/18 00:46:33;;;;;;;46.28;17.92;;;-0.10;99.90;;;;;;5020768;28;20033;-79
2022/12/18 00:48:59;;;;;;;45.72;16.73;;;-0.10;99.90;;;;;;5024621;28;20545;-78
2022/12/18 00:51:24;;;;;;;47.08;16.50;;;-0.10;99.90;;;;;;5045411;28;20032;-77
2022/12/18 00:53:50;;;;;;;44.47;16.75;;;-0.10;99.90;;;;;;5030334;28;20037;-78
2022/12/18 00:56:16;;;;;;;41.88;16.60;;;-0.10;99.90;;;;;;5015321;28;20767;-78
2022/12/18 00:58:41;;;;;;;38.60;15.60;;;0.00;99.90;;;;;;5025718;28;20025;-78
2022/12/18 01:01:07;;;;;;;37.03;14.88;;;0.10;99.90;;;;;;5033127;28;20029;-78
2022/12/18 01:03:33;;;;;;;40.42;15.95;;;0.00;99.90;;;;;;5035212;28;20103;-78
2022/12/18 01:05:58;;;;;;;37.45;15.07;;;0.00;99.90;;;;;;5020672;28;20045;-78
2022/12/18 01:08:24;;;;;;;41.75;14.90;;;0.00;99.90;;;;;;5037124;28;20025;-78
2022/12/18 01:10:51;;;;;;;39.05;14.05;;;0.00;99.90;;;;;;5041263;28;20538;-79
2022/12/18 01:13:16;;;;;;;38.90;15.07;;;-0.10;99.90;;;;;;5016155;28;20035;-78
2022/12/18 01:15:49;;;;;;;40.75;15.35;;;-0.10;99.90;;;;;;5034734;28;20438;-79
2022/12/18 01:18:15;;;;;;;36.92;15.05;;;-0.10;99.90;;;;;;5037195;28;20459;-78
2022/12/18 01:20:40;;;;;;;37.25;15.32;;;-0.20;99.90;;;;;;5038924;28;20111;-78
2022/12/18 01:23:06;;;;;;;39.88;15.20;;;-0.20;99.90;;;;;;5031727;28;20037;-78
2022/12/18 01:25:31;;;;;;;37.55;14.98;;;-0.20;99.90;;;;;;5043443;28;20463;-78
2022/12/18 01:27:57;;;;;;;36.63;13.15;;;-0.20;99.90;;;;;;5027496;28;20036;-79
2022/12/18 01:30:23;;;;;;;31.25;13.23;;;-0.10;99.90;;;;;;5037020;28;20173;-79
2022/12/18 01:32:48;;;;;;;36.78;14.27;;;-0.20;99.90;;;;;;5034662;28;20352;-78
2022/12/18 01:35:14;;;;;;;35.45;13.63;;;-0.20;99.90;;;;;;5028560;28;20102;-78
2022/12/18 01:37:40;;;;;;;39.28;14.02;;;-0.10;99.90;;;;;;5036287;28;20048;-78
2022/12/18 01:40:06;;;;;;;34.67;14.18;;;-0.10;99.90;;;;;;5018176;28;20060;-78
2022/12/18 01:42:32;;;;;;;34.90;14.45;;;0.00;99.90;;;;;;5033311;28;20683;-78
2022/12/18 01:45:05;;;;;;;39.22;14.38;;;-0.10;99.90;;;;;;5024293;28;20175;-77
2022/12/18 01:47:39;;;;;;;33.60;14.10;;;0.00;99.90;;;;;;5021453;28;20048;-79
2022/12/18 01:50:16;;;;;;;36.75;13.82;;;-0.10;99.90;;;;;;5036639;28;20087;-78
2022/12/18 01:53:05;;;;;;;44.95;15.20;;;-0.10;99.90;;;;;;5030687;28;20033;-79
2022/12/18 01:55:36;;;;;;;37.70;12.93;;;-0.10;99.90;;;;;;5041845;28;20032;-79
2022/12/18 01:58:02;;;;;;;36.50;13.85;;;-0.10;99.90;;;;;;5038158;28;20472;-79
2022/12/18 02:00:28;;;;;;;37.20;13.40;;;-0.10;99.90;;;;;;5020890;28;20031;-79
2022/12/18 02:02:54;;;;;;;30.92;12.95;;;-0.10;99.90;;;;;;5046229;28;20121;-79
2022/12/18 02:05:48;;;;;;;33.08;12.50;;;-0.10;99.90;;;;;;5027709;28;20522;-79
2022/12/18 02:08:20;;;;;;;29.80;12.90;;;-0.10;99.90;;;;;;5030624;28;20084;-78
2022/12/18 02:10:50;;;;;;;28.10;12.30;;;-0.10;99.90;;;;;;5032435;28;20043;-77
2022/12/18 02:13:35;;;;;;;30.85;11.63;;;-0.10;99.90;;;;;;5036536;28;20206;-79
2022/12/18 02:16:15;;;;;;;38.28;13.60;;;0.00;99.90;;;;;;5014780;28;20041;-80
2022/12/18 02:18:48;;;;;;;29.40;12.45;;;0.00;99.90;;;;;;5030742;28;20297;-79
2022/12/18 02:21:58;;;;;;;27.90;12.63;;;0.00;99.90;;;;;;5021923;28;20029;-78
2022/12/18 02:25:04;;;;;;;37.15;13.25;;;0.10;99.90;;;;;;4991232;28;20028;-79
2022/12/18 02:27:32;;;;;;;29.73;11.93;;;0.10;99.90;;;;;;5029319;28;20037;-78
2022/12/18 02:30:00;;;;;;;28.15;12.07;;;0.10;99.90;;;;;;5033156;28;20425;-79
2022/12/18 02:32:33;;;;;;;29.08;10.98;;;0.10;99.90;;;;;;5010752;28;20389;-78
2022/12/18 02:35:01;;;;;;;28.98;12.30;;;0.10;99.90;;;;;;5032916;28;20095;-79
2022/12/18 02:37:28;;;;;;;32.78;12.73;;;0.00;99.90;;;;;;5005210;28;20623;-78
2022/12/18 02:39:56;;;;;;;26.98;11.95;;;0.00;99.90;;;;;;5028717;28;20037;-79
2022/12/18 02:42:22;;;;;;;34.95;12.32;;;0.00;99.90;;;;;;5018695;28;20029;-79
2022/12/18 02:44:50;;;;;;;25.98;10.68;;;0.00;99.90;;;;;;5034039;28;20196;-77
2022/12/18 02:47:22;;;;;;;25.13;10.52;;;0.00;99.90;;;;;;5032611;28;20074;-78
2022/12/18 02:49:56;;;;;;;;;;;-0.10;99.90;;;;;;5025070;28;20123;-79
2022/12/18 02:52:36;;;;;;;22.95;9.80;;;-0.10;99.90;;;;;;5037687;28;19962;-79
2022/12/18 02:55:34;;;;;;;25.80;10.73;;;-0.20;99.90;;;;;;5045370;28;20033;-79
2022/12/18 02:58:13;;;;;;;24.02;10.50;;;-0.20;99.90;;;;;;5025412;28;20132;-79
2022/12/18 03:00:51;;;;;;;20.55;9.68;;;-0.30;99.90;;;;;;5028375;28;20500;-79
2022/12/18 03:03:41;;;;;;;25.63;10.55;;;-0.30;99.90;;;;;;5039299;28;20247;-79
2022/12/18 03:06:37;;;;;;;19.25;9.07;;;-0.40;99.90;;;;;;5010363;28;20802;-78
2022/12/18 03:09:12;;;;;;;20.40;9.27;;;-0.30;99.90;;;;;;5017173;28;20120;-78
2022/12/18 03:14:30;;;;;;;19.60;8.52;;;-0.40;99.90;;;;;;5034806;28;20071;-79
2022/12/18 03:17:00;;;;;;;20.92;9.57;;;-0.30;99.90;;;;;;5045585;28;20028;-79
2022/12/18 03:19:29;;;;;;;19.58;8.25;;;-0.40;99.90;;;;;;5034333;28;20471;-79
2022/12/18 03:21:57;;;;;;;23.08;8.98;;;-0.40;99.90;;;;;;5039639;28;20029;-78
2022/12/18 03:24:26;;;;;;;22.50;8.98;;;-0.50;99.90;;;;;;5036381;28;20033;-78
2022/12/18 03:26:55;;;;;;;21.10;9.15;;;-0.50;99.90;;;;;;5026714;28;20132;-78
2022/12/18 03:29:33;;;;;;;21.13;8.40;;;-0.50;99.90;;;;;;5034939;28;20036;-79
2022/12/18 03:32:06;;;;;;;20.85;8.88;;;-0.50;99.90;;;;;;5039352;28;20120;-79
2022/12/18 03:34:35;;;;;;;22.35;9.65;;;-0.50;99.90;;;;;;5045113;28;20025;-78
2022/12/18 03:37:01;;;;;;;19.02;8.38;;;-0.50;99.90;;;;;;5031242;28;20029;-79
2022/12/18 03:39:27;;;;;;;22.90;9.25;;;-0.50;99.90;;;;;;5048359;28;20190;-79
2022/12/18 03:42:04;;;;;;;19.30;8.20;;;-0.50;99.90;;;;;;5045364;28;20067;-79
2022/12/18 03:44:33;;;;;;;19.55;8.27;;;-0.50;99.90;;;;;;5041937;28;20032;-79
2022/12/18 03:47:07;;;;;;;17.25;8.40;;;-0.40;99.90;;;;;;5019109;28;20045;-77
2022/12/18 03:49:52;;;;;;;18.95;7.70;;;-0.50;99.90;;;;;;5019228;28;20056;-79
2022/12/18 03:52:21;;;;;;;19.08;7.88;;;-0.40;99.90;;;;;;5042139;28;20044;-79
2022/12/18 03:54:47;;;;;;;17.42;8.50;;;-0.40;99.90;;;;;;5034021;28;20025;-78
2022/12/18 03:57:22;;;;;;;19.30;7.65;;;-0.50;99.90;;;;;;5037407;28;20033;-79
2022/12/18 03:59:51;;;;;;;18.67;8.35;;;-0.50;99.90;;;;;;5026043;28;20026;-79
2022/12/18 04:02:17;;;;;;;15.40;7.60;;;-0.40;99.90;;;;;;5041690;28;20151;-78
2022/12/18 04:04:46;;;;;;;19.67;8.88;;;-0.40;99.90;;;;;;5046424;28;20119;-78
2022/12/18 04:07:13;;;;;;;20.42;8.52;;;-0.30;99.90;;;;;;5024481;28;20033;-79
2022/12/18 04:09:39;;;;;;;23.80;8.85;;;-0.30;99.90;;;;;;5036310;28;20032;-78
2022/12/18 04:12:05;;;;;;;18.90;7.82;;;-0.30;99.90;;;;;;5040747;28;20203;-79
2022/12/18 04:14:35;;;;;;;16.20;7.90;;;-0.30;99.90;;;;;;5018209;28;20155;-79
2022/12/18 04:17:01;;;;;;;17.15;7.72;;;-0.30;99.90;;;;;;5040109;28;20449;-78
2022/12/18 04:19:26;;;;;;;16.65;7.47;;;-0.30;99.90;;;;;;5035188;28;20037;-79
2022/12/18 04:21:52;;;;;;;17.70;7.50;;;-0.20;99.90;;;;;;5040413;28;20028;-80
2022/12/18 04:24:18;;;;;;;19.13;9.25;;;-0.20;99.90;;;;;;5027374;28;20124;-78
2022/12/18 04:26:43;;;;;;;19.23;8.52;;;-0.20;99.90;;;;;;5039354;28;20512;-79
2022/12/18 04:29:09;;;;;;;15.90;7.53;;;-0.10;99.90;;;;;;5039737;28;20034;-78
2022/12/18 04:31:34;;;;;;;20.70;8.32;;;-0.10;99.90;;;;;;5022271;28;20712;-80
2022/12/18 04:34:00;;;;;;;20.65;8.27;;;-0.20;99.90;;;;;;5044967;28;20041;-80
2022/12/18 04:36:26;;;;;;;19.33;7.63;;;-0.20;99.90;;;;;;5019471;28;20017;-79
2022/12/18 04:38:51;;;;;;;16.90;7.68;;;-0.20;99.90;;;;;;5040081;28;20409;-78
2022/12/18 04:41:17;;;;;;;16.50;7.45;;;-0.20;99.90;;;;;;5029580;28;20052;-79
2022/12/18 04:43:43;;;;;;;16.50;7.78;;;-0.20;99.90;;;;;;5021925;28;20044;-79
2022/12/18 04:46:08;;;;;;;20.00;8.48;;;-0.20;99.90;;;;;;5020816;28;20084;-78
2022/12/18 04:48:35;;;;;;;18.98;8.27;;;-0.20;99.90;;;;;;5021474;28;20120;-78
2022/12/18 04:51:01;;;;;;;18.23;8.30;;;-0.20;99.90;;;;;;5047029;28;20044;-78
2022/12/18 04:53:26;;;;;;;18.17;8.30;;;-0.20;99.90;;;;;;5017075;28;20481;-78
2022/12/18 04:56:12;;;;;;;16.45;7.70;;;-0.20;99.90;;;;;;5019009;28;20444;-78
2022/12/18 04:58:40;;;;;;;14.68;7.10;;;-0.20;99.90;;;;;;5039808;28;20021;-78
2022/12/18 05:01:07;;;;;;;19.40;7.85;;;-0.20;99.90;;;;;;5024466;28;20059;-78
2022/12/18 05:03:33;;;;;;;20.00;7.85;;;-0.20;99.90;;;;;;5045446;28;20024;-77
2022/12/18 05:05:59;;;;;;;16.23;7.70;;;-0.30;99.90;;;;;;5034669;28;20041;-77
2022/12/18 05:08:25;;;;;;;15.43;7.47;;;-0.30;99.90;;;;;;5038812;28;20029;-78
2022/12/18 05:11:02;;;;;;;15.73;7.80;;;-0.30;99.90;;;;;;5043829;28;20113;-79
2022/12/18 05:13:29;;;;;;;14.63;7.63;;;-0.30;99.90;;;;;;5039447;28;20029;-78
2022/12/18 05:15:55;;;;;;;15.18;8.15;;;-0.40;99.90;;;;;;5024320;28;20040;-77
2022/12/18 05:18:22;;;;;;;15.82;6.88;;;-0.40;99.90;;;;;;5030577;28;20041;-78
2022/12/18 05:20:49;;;;;;;17.33;7.75;;;-0.50;99.90;;;;;;5039621;28;20082;-77
2022/12/18 05:23:15;;;;;;;19.50;8.60;;;-0.50;99.90;;;;;;5034572;28;20388;-78
2022/12/18 05:25:41;;;;;;;19.00;9.13;;;-0.40;99.90;;;;;;5036310;28;20188;-77
2022/12/18 05:28:06;;;;;;;19.42;8.98;;;-0.30;99.90;;;;;;5039626;28;20025;-78
2022/12/18 05:30:32;;;;;;;18.52;8.68;;;-0.20;99.90;;;;;;5017443;28;20082;-78
2022/12/18 05:32:57;;;;;;;18.98;8.57;;;-0.10;99.90;;;;;;5033108;28;20485;-78
2022/12/18 05:35:23;;;;;;;19.05;8.52;;;0.00;99.90;;;;;;5041446;28;20064;-78
2022/12/18 05:37:48;;;;;;;18.35;8.30;;;0.20;99.90;;;;;;5027886;28;20456;-79
2022/12/18 05:40:14;;;;;;;20.90;8.65;;;0.30;99.90;;;;;;5025028;28;20056;-77
2022/12/18 05:42:40;;;;;;;16.00;7.70;;;0.40;99.90;;;;;;5040753;28;20229;-78
2022/12/18 05:45:06;;;;;;;14.15;6.88;;;0.50;99.90;;;;;;5034246;28;20369;-77
2022/12/18 05:47:31;;;;;;;16.02;7.78;;;0.60;99.90;;;;;;5035050;28;20048;-78
2022/12/18 05:49:57;;;;;;;16.08;7.72;;;0.70;99.90;;;;;;5035124;28;20460;-79
2022/12/18 05:52:23;;;;;;;15.02;7.93;;;0.80;99.90;;;;;;5034096;28;20028;-77
2022/12/18 05:54:49;;;;;;;16.52;6.85;;;0.90;99.90;;;;;;5035063;28;20030;-77
2022/12/18 05:57:14;;;;;;;15.32;7.60;;;0.90;99.90;;;;;;5031415;28;20051;-77
2022/12/18 05:59:40;;;;;;;18.63;7.65;;;0.90;99.90;;;;;;5019485;28;20039;-77
2022/12/18 06:02:06;;;;;;;15.68;7.60;;;1.00;99.90;;;;;;5029942;28;20374;-77
2022/12/18 06:04:31;;;;;;;14.70;7.18;;;1.00;99.90;;;;;;5037971;28;20160;-78
2022/12/18 06:06:57;;;;;;;13.07;6.88;;;1.10;99.90;;;;;;5037412;28;20137;-78
2022/12/18 06:09:23;;;;;;;17.20;7.30;;;1.20;99.90;;;;;;5010979;28;20073;-77
2022/12/18 06:11:50;;;;;;;15.20;7.47;;;1.20;99.90;;;;;;5023147;28;20453;-78
2022/12/18 06:14:17;;;;;;;14.27;7.03;;;1.20;99.90;;;;;;5040474;28;20210;-77
2022/12/18 06:16:42;;;;;;;14.93;7.68;;;1.30;99.90;;;;;;5025151;28;20097;-78
2022/12/18 06:19:13;;;;;;;15.52;7.60;;;1.20;99.90;;;;;;5018644;28;20477;-78
2022/12/18 06:21:39;;;;;;;17.67;6.80;;;1.30;99.90;;;;;;5032513;28;20451;-77
2022/12/18 06:24:05;;;;;;;15.90;7.90;;;1.40;99.90;;;;;;5045233;28;20044;-78
2022/12/18 06:26:30;;;;;;;16.17;8.07;;;1.50;99.90;;;;;;5026570;28;20037;-79
2022/12/18 06:28:56;;;;;;;16.58;7.55;;;1.50;99.90;;;;;;5016278;28;20025;-78
2022/12/18 06:31:21;;;;;;;16.90;7.60;;;1.60;99.90;;;;;;5015782;28;20049;-78
2022/12/18 06:33:47;;;;;;;18.92;7.18;;;1.70;99.90;;;;;;5038834;28;20032;-78
2022/12/18 06:36:13;;;;;;;17.38;7.22;;;1.70;99.90;;;;;;5035172;28;20515;-78
2022/12/18 06:38:41;;;;;;;17.65;7.30;;;1.80;99.90;;;;;;5024869;28;20429;-78
2022/12/18 06:41:14;;;;;;;17.20;6.88;;;1.80;99.90;;;;;;5035304;28;20041;-78
2022/12/18 06:43:39;;;;;;;16.75;7.97;;;1.90;99.90;;;;;;5030381;28;20123;-78
2022/12/18 06:46:05;;;;;;;18.45;7.53;;;2.00;99.90;;;;;;5023926;28;20167;-78
2022/12/18 06:48:31;;;;;;;16.88;7.57;;;1.90;99.90;;;;;;5023804;28;20110;-78
2022/12/18 06:50:57;;;;;;;17.33;7.97;;;2.00;99.90;;;;;;5037820;28;20037;-78
2022/12/18 06:53:23;;;;;;;15.38;7.30;;;2.10;99.90;;;;;;5043615;28;20036;-78
2022/12/18 06:55:48;;;;;;;14.63;7.65;;;2.10;99.90;;;;;;5046595;28;20032;-78
2022/12/18 06:58:14;;;;;;;17.40;7.82;;;2.10;99.90;;;;;;5029506;28;20512;-79
2022/12/18 07:00:40;;;;;;;19.50;8.32;;;2.20;99.90;;;;;;5038723;28;20056;-77
2022/12/18 07:03:06;;;;;;;19.17;8.95;;;2.20;99.90;;;;;;5048034;28;20033;-78
2022/12/18 07:05:31;;;;;;;17.58;7.78;;;2.20;99.90;;;;;;5042189;28;20120;-78
2022/12/18 07:07:58;;;;;;;19.60;8.93;;;2.20;99.90;;;;;;5041126;28;20033;-78
2022/12/18 07:10:24;;;;;;;19.30;8.05;;;2.20;99.90;;;;;;5014819;28;20385;-78
2022/12/18 07:12:49;;;;;;;18.00;7.78;;;2.10;99.90;;;;;;5022532;28;20105;-78
2022/12/18 07:15:15;;;;;;;21.05;7.63;;;2.10;99.90;;;;;;5020984;28;20117;-78
2022/12/18 07:17:41;;;;;;;20.00;7.90;;;2.20;99.90;;;;;;5027398;28;20041;-85
2022/12/18 07:20:07;;;;;;;17.55;8.18;;;2.20;99.90;;;;;;5045043;28;20116;-82
2022/12/18 07:22:33;;;;;;;18.70;8.70;;;2.20;99.90;;;;;;5018557;28;20051;-82
2022/12/18 07:24:58;;;;;;;19.15;7.50;;;2.20;99.90;;;;;;5012178;28;20733;-82
2022/12/18 07:27:24;;;;;;;17.90;9.10;;;2.20;99.90;;;;;;5014320;28;20050;-80
2022/12/18 07:29:50;;;;;;;15.13;7.55;;;2.20;99.90;;;;;;5034831;28;20404;-80
2022/12/18 07:32:15;;;;;;;16.60;8.52;;;2.30;99.90;;;;;;5022140;28;20029;-81
2022/12/18 07:34:41;;;;;;;16.08;8.40;;;2.20;99.90;;;;;;5014956;28;20112;-81
2022/12/18 07:37:07;;;;;;;17.50;8.15;;;2.20;99.90;;;;;;5026052;28;20408;-80
2022/12/18 07:39:32;;;;;;;20.63;8.75;;;2.20;99.90;;;;;;5027812;28;20229;-81
2022/12/18 07:44:43;;;;;;;19.60;8.50;;;2.10;99.90;;;;;;5035423;28;20344;-81
2022/12/18 07:47:08;;;;;;;19.80;8.23;;;2.20;99.90;;;;;;5039123;28;20502;-80
2022/12/18 07:49:34;;;;;;;18.20;8.13;;;2.20;99.90;;;;;;5034387;28;20033;-81
2022/12/18 07:51:59;;;;;;;18.58;8.50;;;2.30;99.90;;;;;;5043605;28;20033;-80
2022/12/18 07:54:25;;;;;;;19.25;8.13;;;2.30;99.90;;;;;;5040274;28;20037;-80
2022/12/18 07:56:51;;;;;;;25.92;8.95;;;2.30;99.90;;;;;;5040407;28;20037;-81
2022/12/18 07:59:18;;;;;;;20.80;9.30;;;2.40;99.90;;;;;;5022131;28;20416;-80
2022/12/18 08:01:43;;;;;;;16.05;9.15;;;2.40;99.90;;;;;;5042206;28;20561;-80
2022/12/18 08:04:09;;;;;;;25.08;9.80;;;2.50;99.90;;;;;;5021360;28;20025;-80
2022/12/18 08:06:35;;;;;;;18.45;9.00;;;2.50;99.90;;;;;;5038240;28;20036;-80
2022/12/18 08:09:01;;;;;;;19.83;9.20;;;2.60;99.90;;;;;;5020466;28;20136;-80
2022/12/18 08:11:27;;;;;;;25.92;9.88;;;2.60;99.90;;;;;;5043253;28;20809;-80
2022/12/18 08:13:53;;;;;;;23.33;9.85;;;2.70;99.90;;;;;;5024879;28;20099;-80
2022/12/18 08:16:19;;;;;;;22.58;9.45;;;2.70;99.90;;;;;;5043520;28;20033;-80
2022/12/18 08:18:45;;;;;;;23.50;9.48;;;2.70;99.90;;;;;;5016035;28;20457;-80
2022/12/18 08:21:13;;;;;;;17.48;9.05;;;2.70;99.90;;;;;;5018181;28;20037;-80
2022/12/18 08:23:39;;;;;;;18.73;9.93;;;2.80;99.90;;;;;;5039187;28;20059;-80
2022/12/18 08:26:05;;;;;;;19.70;10.60;;;2.80;99.90;;;;;;5015303;28;20098;-80
2022/12/18 08:28:30;;;;;;;24.25;10.52;;;2.80;99.90;;;;;;5027839;28;20036;-80
2022/12/18 08:30:56;;;;;;;22.85;10.35;;;2.80;99.90;;;;;;5029085;28;20081;-80
2022/12/18 08:33:21;;;;;;;23.48;11.20;;;2.80;99.90;;;;;;5010772;28;20049;-79
2022/12/18 08:35:47;;;;;;;22.55;11.75;;;2.80;99.90;;;;;;5009099;28;20624;-79
2022/12/18 08:38:13;;;;;;;22.90;10.70;;;2.80;99.90;;;;;;5011447;28;20063;-80
2022/12/18 08:40:38;;;;;;;22.00;11.13;;;2.80;99.90;;;;;;5021083;28;20466;-78
2022/12/18 08:45:48;;;;;;;20.77;10.80;;;2.80;99.90;;;;;;5023286;28;20107;-78
2022/12/18 08:48:14;;;;;;;23.35;11.68;;;2.80;99.90;;;;;;5005965;28;20033;-78
2022/12/18 08:50:40;;;;;;;28.33;12.60;;;2.80;99.90;;;;;;5006043;28;20044;-78
2022/12/18 08:53:06;;;;;;;19.58;11.52;;;2.80;99.90;;;;;;5039043;28;20156;-78
2022/12/18 08:55:32;;;;;;;20.85;11.35;;;2.90;99.90;;;;;;5019742;28;20444;-78
2022/12/18 08:57:57;;;;;;;27.40;11.38;;;2.90;99.90;;;;;;5037060;28;20043;-78
2022/12/18 09:00:23;;;;;;;21.55;10.90;;;2.90;99.90;;;;;;5040714;28;20059;-78
2022/12/18 09:02:48;;;;;;;19.33;10.48;;;2.90;99.90;;;;;;5020029;28;20068;-78
2022/12/18 09:05:14;;;;;;;25.45;12.45;;;2.90;99.90;;;;;;5039822;28;20071;-78
2022/12/18 09:07:40;;;;;;;23.48;11.77;;;2.90;99.90;;;;;;5040810;28;20033;-78
2022/12/18 09:10:06;;;;;;;20.90;11.73;;;2.90;99.90;;;;;;5040721;28;20028;-78
2022/12/18 09:12:31;;;;;;;25.17;12.57;;;2.90;99.90;;;;;;5019326;28;20106;-78
2022/12/18 09:14:57;;;;;;;27.83;13.48;;;2.80;99.90;;;;;;5019262;28;20025;-78
2022/12/18 09:17:23;;;;;;;26.25;11.98;;;2.90;99.90;;;;;;5019640;28;20038;-79
2022/12/18 09:19:49;;;;;;;25.25;12.48;;;2.90;99.90;;;;;;5038709;28;20042;-78
2022/12/18 09:22:14;;;;;;;23.10;12.68;;;3.00;99.90;;;;;;5031601;28;20392;-78
2022/12/18 09:24:40;;;;;;;29.05;13.02;;;3.00;99.90;;;;;;5030282;28;20033;-78
2022/12/18 09:27:05;;;;;;;27.58;12.73;;;3.00;99.90;;;;;;5015740;28;20160;-78
2022/12/18 09:29:32;;;;;;;30.02;13.70;;;3.10;99.90;;;;;;5012750;28;20080;-77
2022/12/18 09:31:58;;;;;;;29.55;13.02;;;3.10;99.90;;;;;;5031232;28;20526;-77
2022/12/18 09:34:23;;;;;;;24.52;12.77;;;3.10;99.90;;;;;;5010360;28;20037;-85
2022/12/18 09:36:49;;;;;;;28.02;13.18;;;3.20;99.90;;;;;;5032730;28;20528;-80
2022/12/18 09:39:15;;;;;;;26.02;12.23;;;3.20;99.90;;;;;;5010552;28;20029;-80
2022/12/18 09:41:54;;;;;;;26.17;13.30;;;3.20;99.90;;;;;;5011601;28;20049;-80
2022/12/18 09:44:46;;;;;;;26.52;12.68;;;3.20;99.90;;;;;;5041807;28;20029;-83
2022/12/18 09:47:34;;;;;;;27.90;13.25;;;3.20;99.90;;;;;;5039808;28;20037;-81
2022/12/18 09:50:03;;;;;;;29.65;13.57;;;3.20;99.90;;;;;;5023935;28;20084;-85
2022/12/18 09:52:32;;;;;;;23.92;12.63;;;3.30;99.90;;;;;;5018771;28;20124;-81
2022/12/18 09:55:04;;;;;;;30.10;13.63;;;3.30;99.90;;;;;;5010747;28;20034;-81
2022/12/18 09:57:33;;;;;;;24.38;12.98;;;3.30;99.90;;;;;;5004847;28;20033;-79
2022/12/18 10:00:06;;;;;;;28.17;14.07;;;3.30;99.90;;;;;;5010237;28;20101;-82
2022/12/18 10:02:32;;;;;;;35.25;15.32;;;3.20;99.90;;;;;;5014122;28;20124;-80
2022/12/18 10:05:06;;;;;;;31.50;14.98;;;3.30;99.90;;;;;;5039747;28;20115;-85
2022/12/18 10:07:58;;;;;;;34.28;15.27;;;3.30;99.90;;;;;;5010386;28;20068;-84
2022/12/18 10:10:27;;;;;;;26.60;13.95;;;3.40;99.90;;;;;;5000044;28;20056;-82
2022/12/18 10:13:18;;;;;;;29.15;13.75;;;3.40;99.90;;;;;;5002666;28;20057;-80
2022/12/18 10:16:19;;;;;;;26.08;13.40;;;3.40;99.90;;;;;;5012808;28;20037;-78
2022/12/18 10:19:05;;;;;;;27.23;14.77;;;3.50;99.90;;;;;;5038063;28;20539;-78
2022/12/18 10:21:56;;;;;;;30.30;14.57;;;3.50;99.90;;;;;;5037991;28;20060;-77
2022/12/18 10:24:37;;;;;;;31.15;14.95;;;3.50;99.90;;;;;;5021803;28;20032;-86
2022/12/18 10:27:17;;;;;;;28.40;14.18;;;3.50;99.90;;;;;;5038037;28;20516;-79
2022/12/18 10:29:45;;;;;;;27.02;13.75;;;3.50;99.90;;;;;;5030139;28;20072;-84
2022/12/18 10:32:20;;;;;;;31.23;14.60;;;3.50;99.90;;;;;;5024271;28;20033;-85
2022/12/18 10:34:50;;;;;;;32.33;15.00;;;3.50;99.90;;;;;;4999218;28;20032;-78
2022/12/18 10:37:18;;;;;;;28.25;14.05;;;3.60;99.90;;;;;;5025038;28;20017;-79
2022/12/18 10:39:44;;;;;;;27.55;14.48;;;3.60;99.90;;;;;;5027486;28;20048;-81
2022/12/18 10:42:16;;;;;;;34.17;16.35;;;3.70;99.90;;;;;;5002793;28;21687;-86
2022/12/18 10:44:42;;;;;;;29.88;14.60;;;3.60;99.90;;;;;;5020210;28;20086;-80
2022/12/18 10:47:13;;;;;;;32.45;15.85;;;3.70;99.90;;;;;;5028822;28;20052;-83
2022/12/18 10:49:48;;;;;;;24.10;13.98;;;3.70;99.90;;;;;;5025588;28;20041;-91
2022/12/18 10:52:25;;;;;;;31.55;14.52;;;3.60;99.90;;;;;;5011993;28;20033;-81
2022/12/18 10:55:01;;;;;;;28.55;14.23;;;3.70;99.90;;;;;;5010255;28;20040;-81
2022/12/18 10:57:41;;;;;;;31.02;15.68;;;3.70;99.90;;;;;;5027862;28;20032;-80
2022/12/18 11:00:30;;;;;;;32.58;15.60;;;3.70;99.90;;;;;;5029766;28;20033;-80
2022/12/18 11:02:56;;;;;;;30.23;15.18;;;3.60;99.90;;;;;;5026661;28;20489;-78
2022/12/18 11:05:27;;;;;;;31.92;14.68;;;3.60;99.90;;;;;;5031167;28;20032;-81
2022/12/18 11:07:56;;;;;;;32.63;16.13;;;3.60;99.90;;;;;;5017273;28;20094;-77
2022/12/18 11:10:26;;;;;;;32.45;16.27;;;3.60;99.90;;;;;;5024316;28;20045;-78
2022/12/18 11:12:52;;;;;;;31.48;16.30;;;3.60;99.90;;;;;;5038316;28;20037;-80
2022/12/18 11:15:23;;;;;;;33.42;15.85;;;3.60;99.90;;;;;;5020522;28;20029;-80
2022/12/18 11:17:51;;;;;;;31.42;15.77;;;3.60;99.90;;;;;;5019809;28;20620;-78
2022/12/18 11:20:34;;;;;;;31.50;15.68;;;3.60;99.90;;;;;;5039426;28;20419;-79
2022/12/18 11:23:01;;;;;;;26.90;15.10;;;3.60;99.90;;;;;;5019317;28;20037;-82
2022/12/18 11:25:27;;;;;;;36.40;16.17;;;3.60;99.90;;;;;;5018355;28;20047;-81
2022/12/18 11:27:56;;;;;;;33.35;16.35;;;3.60;99.90;;;;;;5041482;28;20037;-81
2022/12/18 11:30:34;;;;;;;34.17;15.98;;;3.50;99.90;;;;;;5025455;28;20492;-84
2022/12/18 11:33:19;;;;;;;33.75;16.83;;;3.50;99.90;;;;;;5023263;28;20033;-81
2022/12/18 11:35:58;;;;;;;36.05;16.65;;;3.50;99.90;;;;;;5021616;28;20040;-82
2022/12/18 11:38:26;;;;;;;38.85;16.90;;;3.50;99.90;;;;;;5006840;28;20017;-80
2022/12/18 11:41:14;;;;;;;40.20;16.38;;;3.50;99.90;;;;;;5040262;28;20075;-82
2022/12/18 11:43:48;;;;;;;39.17;18.35;;;3.50;99.90;;;;;;5017696;28;20405;-86
2022/12/18 11:46:34;;;;;;;39.97;17.95;;;3.50;99.90;;;;;;5016087;28;20064;-83
2022/12/18 11:49:41;;;;;;;37.85;17.48;;;3.50;99.90;;;;;;5042383;28;20033;-84
2022/12/18 11:52:09;;;;;;;35.67;17.50;;;3.50;99.90;;;;;;4937449;29;20260;-84
2022/12/18 11:54:34;;;;;;;35.20;17.58;;;3.40;99.90;;;;;;4937078;29;20027;-83
2022/12/18 11:57:24;;;;;;;42.72;19.17;;;3.40;99.90;;;;;;4980369;28;20412;-83
2022/12/18 12:00:01;;;;;;;43.83;19.58;;;3.40;99.90;;;;;;5010459;28;20127;-83
2022/12/18 12:02:45;;;;;;;41.13;18.35;;;3.40;99.90;;;;;;5029466;28;20072;-81
2022/12/18 12:05:39;;;;;;;37.72;19.27;;;3.40;99.90;;;;;;5019429;28;20047;-83
2022/12/18 12:08:23;;;;;;;38.85;18.40;;;3.50;99.90;;;;;;5034278;28;20209;-83
2022/12/18 12:11:01;;;;;;;56.42;21.17;;;3.60;99.90;;;;;;5017862;28;20033;-83
2022/12/18 12:14:08;;;;;;;46.28;19.58;;;3.50;99.90;;;;;;5020680;28;20032;-84
2022/12/18 12:16:51;;;;;;;48.03;19.08;;;3.60;99.90;;;;;;5036198;28;20106;-83
2022/12/18 12:19:25;;;;;;;41.58;19.33;;;3.50;99.90;;;;;;5019055;28;20094;-84
2022/12/18 12:22:10;;;;;;;39.78;19.83;;;3.50;99.90;;;;;;5019874;28;20132;-83
2022/12/18 12:24:58;;;;;;;47.53;20.35;;;3.50;99.90;;;;;;5017815;28;20212;-83
2022/12/18 12:27:42;;;;;;;44.45;19.77;;;3.50;99.90;;;;;;5021806;28;20116;-84
2022/12/18 12:30:18;;;;;;;43.90;20.13;;;3.50;99.90;;;;;;5011312;28;20562;-83
2022/12/18 12:33:19;;;;;;;51.72;21.10;;;3.50;99.90;;;;;;5040385;28;20073;-91
2022/12/18 12:35:53;;;;;;;51.13;20.23;;;3.50;99.90;;;;;;5008719;28;20691;-84
2022/12/18 12:38:34;;;;;;;48.55;20.83;;;3.50;99.90;;;;;;5040350;28;20286;-88
2022/12/18 12:44:02;;;;;;;45.53;20.33;;;3.50;99.90;;;;;;5023352;28;20231;-83
2022/12/18 12:46:33;;;;;;;49.78;20.13;;;3.50;99.90;;;;;;5023161;28;20160;-81
2022/12/18 12:49:04;;;;;;;49.28;20.40;;;3.50;99.90;;;;;;5018793;28;20077;-80
2022/12/18 12:51:36;;;;;;;42.47;19.33;;;3.50;99.90;;;;;;5029987;28;20048;-78
2022/12/18 12:54:06;;;;;;;47.17;20.50;;;3.50;99.90;;;;;;5037571;28;20327;-86
2022/12/18 12:56:54;;;;;;;44.85;20.00;;;3.50;99.90;;;;;;5021933;28;20420;-82
2022/12/18 12:59:49;;;;;;;40.05;17.70;;;3.50;99.90;;;;;;5028222;28;20246;-87
2022/12/18 13:02:21;;;;;;;40.63;18.58;;;3.50;99.90;;;;;;5025813;28;20521;-85
2022/12/18 13:05:01;;;;;;;37.05;17.63;;;3.50;99.90;;;;;;5020742;28;20110;-79
2022/12/18 13:07:41;;;;;;;45.58;17.65;;;3.50;99.90;;;;;;5016008;28;20472;-77
2022/12/18 13:10:25;;;;;;;49.08;19.67;;;3.50;99.90;;;;;;5035247;28;20044;-89